sensor_id;sensor_type;location;lat;lon;timestamp;pressure;altitude;pressure_sealevel;temperature;humidity
75938;BME280;64615;32.062;34.834;2023-08-31T00:01:14;100591.31;;;27.98;68.07
75938;BME280;64615;32.062;34.834;2023-08-31T00:03:39;100593.22;;;27.97;68.02
75938;BME280;64615;32.062;34.834;2023-08-31T00:06:05;100594.31;;;27.96;68.01
75938;BME280;64615;32.062;34.834;2023-08-31T00:08:33;100596.56;;;27.94;68.06
75938;BME280;64615;32.062;34.834;2023-08-31T00:11:00;100602.03;;;27.94;68.36
75938;BME280;64615;32.062;34.834;2023-08-31T00:13:26;100602.03;;;27.94;67.88
75938;BME280;64615;32.062;34.834;2023-08-31T00:15:56;100605.88;;;27.93;68.24
75938;BME280;64615;32.062;34.834;2023-08-31T00:18:25;100605.88;;;27.93;68.17
75938;BME280;64615;32.062;34.834;2023-08-31T00:20:51;100602.63;;;27.91;68.33
75938;BME280;64615;32.062;34.834;2023-08-31T00:23:17;100611.34;;;27.93;68.28
75938;BME280;64615;32.062;34.834;2023-08-31T00:25:44;100616.53;;;27.95;68.22
75938;BME280;64615;32.062;34.834;2023-08-31T00:28:10;100614.59;;;27.95;68.25
75938;BME280;64615;32.062;34.834;2023-08-31T00:30:35;100606.38;;;27.95;68.16
75938;BME280;64615;32.062;34.834;2023-08-31T00:33:01;100603.63;;;27.95;68.15
75938;BME280;64615;32.062;34.834;2023-08-31T00:35:27;100608.63;;;27.93;68.04
75938;BME280;64615;32.062;34.834;2023-08-31T00:37:53;100614.09;;;27.93;68.36
75938;BME280;64615;32.062;34.834;2023-08-31T00:40:26;100617.13;;;27.92;68.10
75938;BME280;64615;32.062;34.834;2023-08-31T00:42:53;100613.56;;;27.91;68.32
75938;BME280;64615;32.062;34.834;2023-08-31T00:45:19;100613.56;;;27.91;68.09
75938;BME280;64615;32.062;34.834;2023-08-31T00:47:46;100614.97;;;27.89;68.23
75938;BME280;64615;32.062;34.834;2023-08-31T00:50:15;100612.25;;;27.89;68.34
75938;BME280;64615;32.062;34.834;2023-08-31T00:52:41;100615.78;;;27.89;68.08
75938;BME280;64615;32.062;34.834;2023-08-31T00:55:10;100612.25;;;27.89;68.13
75938;BME280;64615;32.062;34.834;2023-08-31T00:57:36;100614.16;;;27.88;68.11
75938;BME280;64615;32.062;34.834;2023-08-31T01:00:03;100613.34;;;27.88;68.25
75938;BME280;64615;32.062;34.834;2023-08-31T01:02:43;100609.78;;;27.87;68.16
75938;BME280;64615;32.062;34.834;2023-08-31T01:05:25;100607.88;;;27.88;68.33
75938;BME280;64615;32.062;34.834;2023-08-31T01:11:11;100620.94;;;27.91;68.18
75938;BME280;64615;32.062;34.834;2023-08-31T01:13:45;100625.31;;;27.92;68.11
75938;BME280;64615;32.062;34.834;2023-08-31T01:16:15;100628.06;;;27.92;68.21
75938;BME280;64615;32.062;34.834;2023-08-31T01:18:42;100622.28;;;27.93;68.24
75938;BME280;64615;32.062;34.834;2023-08-31T01:21:25;100628.50;;;27.99;67.82
75938;BME280;64615;32.062;34.834;2023-08-31T01:23:56;100626.25;;;28.01;67.83
75938;BME280;64615;32.062;34.834;2023-08-31T01:26:24;100625.97;;;28.02;67.89
75938;BME280;64615;32.062;34.834;2023-08-31T01:28:51;100629.53;;;28.03;67.66
75938;BME280;64615;32.062;34.834;2023-08-31T01:31:18;100633.66;;;28.00;67.87
75938;BME280;64615;32.062;34.834;2023-08-31T01:33:43;100637.22;;;28.01;67.90
75938;BME280;64615;32.062;34.834;2023-08-31T01:38:51;100646.25;;;28.01;68.15
75938;BME280;64615;32.062;34.834;2023-08-31T01:41:19;100642.41;;;28.02;68.27
75938;BME280;64615;32.062;34.834;2023-08-31T01:43:45;100648.69;;;28.03;68.13
75938;BME280;64615;32.062;34.834;2023-08-31T01:46:12;100645.94;;;28.03;68.17
75938;BME280;64615;32.062;34.834;2023-08-31T01:48:39;100641.28;;;28.03;68.11
75938;BME280;64615;32.062;34.834;2023-08-31T01:51:07;100647.88;;;28.02;68.21
75938;BME280;64615;32.062;34.834;2023-08-31T01:53:33;100656.97;;;27.98;68.03
75938;BME280;64615;32.062;34.834;2023-08-31T01:55:58;100647.41;;;27.95;68.45
75938;BME280;64615;32.062;34.834;2023-08-31T01:58:24;100658.69;;;27.94;68.20
75938;BME280;64615;32.062;34.834;2023-08-31T02:00:50;100656.22;;;27.92;68.13
75938;BME280;64615;32.062;34.834;2023-08-31T02:03:15;100652.97;;;27.90;68.18
75938;BME280;64615;32.062;34.834;2023-08-31T02:05:41;100651.38;;;27.89;68.21
75938;BME280;64615;32.062;34.834;2023-08-31T02:08:06;100650.56;;;27.89;68.11
75938;BME280;64615;32.062;34.834;2023-08-31T02:10:32;100664.22;;;27.89;68.15
75938;BME280;64615;32.062;34.834;2023-08-31T02:12:58;100665.63;;;27.86;68.15
75938;BME280;64615;32.062;34.834;2023-08-31T02:15:24;100667.25;;;27.87;69.43
75938;BME280;64615;32.062;34.834;2023-08-31T02:17:50;100674.25;;;27.27;72.61
75938;BME280;64615;32.062;34.834;2023-08-31T02:20:15;100667.47;;;26.67;71.87
75938;BME280;64615;32.062;34.834;2023-08-31T02:22:41;100669.03;;;26.05;71.16
75938;BME280;64615;32.062;34.834;2023-08-31T02:25:07;100670.34;;;26.51;73.03
75938;BME280;64615;32.062;34.834;2023-08-31T02:27:32;100676.19;;;25.96;69.65
75938;BME280;64615;32.062;34.834;2023-08-31T02:29:58;100681.06;;;25.99;71.20
75938;BME280;64615;32.062;34.834;2023-08-31T02:32:24;100677.59;;;26.32;72.64
75938;BME280;64615;32.062;34.834;2023-08-31T02:34:50;100673.75;;;25.89;70.43
75938;BME280;64615;32.062;34.834;2023-08-31T02:37:15;100675.53;;;25.60;70.27
75938;BME280;64615;32.062;34.834;2023-08-31T02:39:41;100680.19;;;26.08;71.90
75938;BME280;64615;32.062;34.834;2023-08-31T02:42:07;100683.63;;;26.29;72.76
75938;BME280;64615;32.062;34.834;2023-08-31T02:44:33;100685.41;;;26.05;70.59
75938;BME280;64615;32.062;34.834;2023-08-31T02:46:59;100692.44;;;25.52;69.81
75938;BME280;64615;32.062;34.834;2023-08-31T02:49:24;100691.97;;;25.99;71.79
75938;BME280;64615;32.062;34.834;2023-08-31T02:51:50;100683.66;;;26.19;72.61
75938;BME280;64615;32.062;34.834;2023-08-31T02:54:16;100689.31;;;26.33;73.21
75938;BME280;64615;32.062;34.834;2023-08-31T02:56:42;100687.41;;;25.84;70.61
75938;BME280;64615;32.062;34.834;2023-08-31T02:59:08;100686.75;;;25.48;70.99
75938;BME280;64615;32.062;34.834;2023-08-31T03:01:33;100684.63;;;25.94;72.20
75938;BME280;64615;32.062;34.834;2023-08-31T03:03:59;100689.41;;;26.12;72.95
75938;BME280;64615;32.062;34.834;2023-08-31T03:06:25;100694.56;;;26.24;73.87
75938;BME280;64615;32.062;34.834;2023-08-31T03:08:51;100695.03;;;25.87;71.39
75938;BME280;64615;32.062;34.834;2023-08-31T03:11:16;100691.69;;;25.31;70.87
75938;BME280;64615;32.062;34.834;2023-08-31T03:13:42;100693.41;;;25.81;72.72
75938;BME280;64615;32.062;34.834;2023-08-31T03:16:08;100700.41;;;26.02;73.18
75938;BME280;64615;32.062;34.834;2023-08-31T03:18:33;100697.88;;;26.16;73.69
75938;BME280;64615;32.062;34.834;2023-08-31T03:20:59;100708.41;;;26.33;73.89
75938;BME280;64615;32.062;34.834;2023-08-31T03:23:25;100704.91;;;25.73;70.28
75938;BME280;64615;32.062;34.834;2023-08-31T03:25:51;100711.53;;;25.57;72.41
75938;BME280;64615;32.062;34.834;2023-08-31T03:28:16;100725.28;;;25.96;72.37
75938;BME280;64615;32.062;34.834;2023-08-31T03:30:42;100710.94;;;26.19;72.15
75938;BME280;64615;32.062;34.834;2023-08-31T03:33:10;100710.91;;;26.68;70.76
75938;BME280;64615;32.062;34.834;2023-08-31T03:35:36;100720.25;;;26.91;69.94
75938;BME280;64615;32.062;34.834;2023-08-31T03:38:02;100722.00;;;27.11;69.26
75938;BME280;64615;32.062;34.834;2023-08-31T03:40:28;100716.13;;;27.22;68.59
75938;BME280;64615;32.062;34.834;2023-08-31T03:42:54;100727.28;;;27.31;68.22
75938;BME280;64615;32.062;34.834;2023-08-31T03:45:20;100735.16;;;27.32;67.85
75938;BME280;64615;32.062;34.834;2023-08-31T03:47:46;100733.25;;;27.33;67.59
75938;BME280;64615;32.062;34.834;2023-08-31T03:50:11;100733.28;;;27.28;67.55
75938;BME280;64615;32.062;34.834;2023-08-31T03:52:37;100735.22;;;27.27;67.59
75938;BME280;64615;32.062;34.834;2023-08-31T03:55:03;100738.75;;;27.28;67.01
75938;BME280;64615;32.062;34.834;2023-08-31T03:57:28;100752.63;;;27.36;67.36
75938;BME280;64615;32.062;34.834;2023-08-31T03:59:54;100745.97;;;27.42;67.09
75938;BME280;64615;32.062;34.834;2023-08-31T04:02:19;100750.34;;;27.44;66.88
75938;BME280;64615;32.062;34.834;2023-08-31T04:04:45;100745.97;;;27.48;66.66
75938;BME280;64615;32.062;34.834;2023-08-31T04:07:11;100748.69;;;27.48;66.91
75938;BME280;64615;32.062;34.834;2023-08-31T04:09:36;100759.31;;;27.49;66.92
75938;BME280;64615;32.062;34.834;2023-08-31T04:12:02;100765.38;;;27.46;67.67
75938;BME280;64615;32.062;34.834;2023-08-31T04:14:28;100754.81;;;27.11;69.10
75938;BME280;64615;32.062;34.834;2023-08-31T04:16:55;100755.38;;;26.74;70.80
75938;BME280;64615;32.062;34.834;2023-08-31T04:19:20;100759.59;;;26.02;67.86
75938;BME280;64615;32.062;34.834;2023-08-31T04:21:46;100762.72;;;25.80;69.48
75938;BME280;64615;32.062;34.834;2023-08-31T04:24:12;100772.63;;;26.15;70.80
75938;BME280;64615;32.062;34.834;2023-08-31T04:26:37;100780.09;;;26.53;69.28
75938;BME280;64615;32.062;34.834;2023-08-31T04:29:03;100777.13;;;26.89;67.86
75938;BME280;64615;32.062;34.834;2023-08-31T04:31:31;100783.19;;;27.15;66.89
75938;BME280;64615;32.062;34.834;2023-08-31T04:33:57;100788.66;;;27.15;62.34
75938;BME280;64615;32.062;34.834;2023-08-31T04:36:24;100787.19;;;26.93;60.27
75938;BME280;64615;32.062;34.834;2023-08-31T04:38:51;100784.13;;;27.00;59.42
75938;BME280;64615;32.062;34.834;2023-08-31T04:41:17;100780.84;;;27.27;60.23
75938;BME280;64615;32.062;34.834;2023-08-31T04:43:42;100790.50;;;27.48;59.73
75938;BME280;64615;32.062;34.834;2023-08-31T04:46:08;100787.41;;;27.60;58.92
75938;BME280;64615;32.062;34.834;2023-08-31T04:48:35;100787.53;;;27.73;59.48
75938;BME280;64615;32.062;34.834;2023-08-31T04:51:01;100790.38;;;27.87;57.90
75938;BME280;64615;32.062;34.834;2023-08-31T04:53:29;100781.22;;;27.97;57.45
75938;BME280;64615;32.062;34.834;2023-08-31T04:55:55;100784.13;;;28.05;57.24
75938;BME280;64615;32.062;34.834;2023-08-31T04:58:21;100788.09;;;28.18;56.68
75938;BME280;64615;32.062;34.834;2023-08-31T05:00:47;100783.28;;;28.29;55.98
75938;BME280;64615;32.062;34.834;2023-08-31T05:03:13;100786.97;;;28.38;55.88
75938;BME280;64615;32.062;34.834;2023-08-31T05:05:39;100787.16;;;28.46;56.21
75938;BME280;64615;32.062;34.834;2023-08-31T05:08:05;100791.44;;;28.52;56.58
75938;BME280;64615;32.062;34.834;2023-08-31T05:10:31;100797.06;;;28.61;56.23
75938;BME280;64615;32.062;34.834;2023-08-31T05:12:56;100794.75;;;28.49;57.17
75938;BME280;64615;32.062;34.834;2023-08-31T05:15:22;100789.66;;;28.43;57.74
75938;BME280;64615;32.062;34.834;2023-08-31T05:17:48;100801.41;;;28.43;58.44
75938;BME280;64615;32.062;34.834;2023-08-31T05:20:14;100798.75;;;28.38;58.43
75938;BME280;64615;32.062;34.834;2023-08-31T05:22:39;100791.63;;;28.37;58.32
75938;BME280;64615;32.062;34.834;2023-08-31T05:25:05;100798.47;;;28.40;58.78
75938;BME280;64615;32.062;34.834;2023-08-31T05:27:31;100800.53;;;28.48;59.34
75938;BME280;64615;32.062;34.834;2023-08-31T05:29:57;100799.88;;;28.56;58.90
75938;BME280;64615;32.062;34.834;2023-08-31T05:32:22;100806.38;;;28.60;59.39
75938;BME280;64615;32.062;34.834;2023-08-31T05:34:48;100800.91;;;28.79;58.98
75938;BME280;64615;32.062;34.834;2023-08-31T05:37:14;100802.72;;;29.02;58.99
75938;BME280;64615;32.062;34.834;2023-08-31T05:39:39;100809.31;;;29.20;59.66
75938;BME280;64615;32.062;34.834;2023-08-31T05:42:05;100810.22;;;29.29;60.65
75938;BME280;64615;32.062;34.834;2023-08-31T05:44:31;100817.69;;;29.42;61.27
75938;BME280;64615;32.062;34.834;2023-08-31T05:46:56;100816.56;;;29.43;61.22
75938;BME280;64615;32.062;34.834;2023-08-31T05:49:22;100813.63;;;29.39;61.12
75938;BME280;64615;32.062;34.834;2023-08-31T05:51:49;100819.84;;;29.26;61.73
75938;BME280;64615;32.062;34.834;2023-08-31T05:54:15;100818.34;;;29.20;62.09
75938;BME280;64615;32.062;34.834;2023-08-31T05:56:40;100813.34;;;29.22;61.75
75938;BME280;64615;32.062;34.834;2023-08-31T05:59:07;100807.88;;;29.22;61.51
75938;BME280;64615;32.062;34.834;2023-08-31T06:01:33;100814.16;;;29.23;61.68
75938;BME280;64615;32.062;34.834;2023-08-31T06:03:59;100810.59;;;29.22;61.63
75938;BME280;64615;32.062;34.834;2023-08-31T06:06:24;100807.38;;;29.20;61.65
75938;BME280;64615;32.062;34.834;2023-08-31T06:08:50;100804.94;;;29.19;61.59
75938;BME280;64615;32.062;34.834;2023-08-31T06:11:16;100812.03;;;29.20;61.77
75938;BME280;64615;32.062;34.834;2023-08-31T06:13:41;100805.22;;;29.17;61.66
75938;BME280;64615;32.062;34.834;2023-08-31T06:16:07;100802.19;;;29.19;61.37
75938;BME280;64615;32.062;34.834;2023-08-31T06:18:32;100800.56;;;29.18;61.14
75938;BME280;64615;32.062;34.834;2023-08-31T06:20:58;100807.13;;;29.17;61.92
75938;BME280;64615;32.062;34.834;2023-08-31T06:23:24;100810.69;;;29.17;61.42
75938;BME280;64615;32.062;34.834;2023-08-31T06:25:49;100806.31;;;29.16;61.63
75938;BME280;64615;32.062;34.834;2023-08-31T06:28:15;100811.31;;;29.14;61.82
75938;BME280;64615;32.062;34.834;2023-08-31T06:30:42;100801.16;;;29.15;61.51
75938;BME280;64615;32.062;34.834;2023-08-31T06:33:14;100810.22;;;29.15;61.74
75938;BME280;64615;32.062;34.834;2023-08-31T06:35:40;100809.16;;;29.11;61.92
75938;BME280;64615;32.062;34.834;2023-08-31T06:38:06;100810.78;;;29.12;61.82
75938;BME280;64615;32.062;34.834;2023-08-31T06:40:31;100816.56;;;29.11;62.18
75938;BME280;64615;32.062;34.834;2023-08-31T06:42:57;100812.22;;;29.10;61.91
75938;BME280;64615;32.062;34.834;2023-08-31T06:45:22;100809.38;;;29.15;61.88
75938;BME280;64615;32.062;34.834;2023-08-31T06:47:48;100811.31;;;29.14;62.35
75938;BME280;64615;32.062;34.834;2023-08-31T06:50:14;100813.53;;;29.12;62.47
75938;BME280;64615;32.062;34.834;2023-08-31T06:52:40;100820.13;;;29.11;62.02
75938;BME280;64615;32.062;34.834;2023-08-31T06:55:06;100812.50;;;29.08;62.50
75938;BME280;64615;32.062;34.834;2023-08-31T06:57:32;100821.03;;;29.06;62.80
75938;BME280;64615;32.062;34.834;2023-08-31T06:59:58;100817.47;;;29.06;62.75
75938;BME280;64615;32.062;34.834;2023-08-31T07:02:26;100819.72;;;29.04;62.70
75938;BME280;64615;32.062;34.834;2023-08-31T07:04:52;100824.06;;;29.05;63.07
75938;BME280;64615;32.062;34.834;2023-08-31T07:07:18;100823.84;;;29.01;62.88
75938;BME280;64615;32.062;34.834;2023-08-31T07:09:45;100823.84;;;29.01;63.19
75938;BME280;64615;32.062;34.834;2023-08-31T07:12:11;100830.97;;;29.02;62.84
75938;BME280;64615;32.062;34.834;2023-08-31T07:14:38;100833.72;;;29.02;63.22
75938;BME280;64615;32.062;34.834;2023-08-31T07:17:03;100820.63;;;28.99;63.81
75938;BME280;64615;32.062;34.834;2023-08-31T07:19:29;100827.13;;;29.03;63.79
75938;BME280;64615;32.062;34.834;2023-08-31T07:21:55;100825.94;;;29.10;62.93
75938;BME280;64615;32.062;34.834;2023-08-31T07:24:22;100828.84;;;28.99;62.04
75938;BME280;64615;32.062;34.834;2023-08-31T07:26:47;100822.94;;;29.06;62.62
75938;BME280;64615;32.062;34.834;2023-08-31T07:29:14;100821.84;;;29.07;63.22
75938;BME280;64615;32.062;34.834;2023-08-31T07:31:39;100824.28;;;29.09;62.40
75938;BME280;64615;32.062;34.834;2023-08-31T07:34:05;100823.47;;;29.08;62.33
75938;BME280;64615;32.062;34.834;2023-08-31T07:36:31;100822.38;;;29.09;62.17
75938;BME280;64615;32.062;34.834;2023-08-31T07:38:56;100818.19;;;29.12;62.28
75938;BME280;64615;32.062;34.834;2023-08-31T07:41:23;100814.63;;;29.11;62.26
75938;BME280;64615;32.062;34.834;2023-08-31T07:43:49;100811.91;;;29.11;62.21
75938;BME280;64615;32.062;34.834;2023-08-31T07:46:15;100818.72;;;29.14;61.60
75938;BME280;64615;32.062;34.834;2023-08-31T07:48:42;100814.63;;;29.11;62.47
75938;BME280;64615;32.062;34.834;2023-08-31T07:51:08;100820.13;;;29.11;62.42
75938;BME280;64615;32.062;34.834;2023-08-31T07:53:33;100810.25;;;29.10;62.55
75938;BME280;64615;32.062;34.834;2023-08-31T07:55:59;100807.84;;;29.09;62.49
75938;BME280;64615;32.062;34.834;2023-08-31T07:58:25;100805.91;;;29.09;62.27
75938;BME280;64615;32.062;34.834;2023-08-31T08:00:57;100806.22;;;29.08;62.56
75938;BME280;64615;32.062;34.834;2023-08-31T08:03:23;100809.25;;;29.06;62.61
75938;BME280;64615;32.062;34.834;2023-08-31T08:05:49;100802.94;;;29.05;62.63
75938;BME280;64615;32.062;34.834;2023-08-31T08:08:15;100808.13;;;29.07;63.07
75938;BME280;64615;32.062;34.834;2023-08-31T08:10:40;100805.38;;;29.07;62.96
75938;BME280;64615;32.062;34.834;2023-08-31T08:13:06;100799.63;;;29.09;62.70
75938;BME280;64615;32.062;34.834;2023-08-31T08:15:32;100805.91;;;29.09;62.90
75938;BME280;64615;32.062;34.834;2023-08-31T08:17:58;100802.03;;;29.10;62.90
75938;BME280;64615;32.062;34.834;2023-08-31T08:20:24;100801.25;;;29.10;63.10
75938;BME280;64615;32.062;34.834;2023-08-31T08:22:50;100802.03;;;29.10;63.40
75938;BME280;64615;32.062;34.834;2023-08-31T08:25:19;100794.13;;;29.09;63.38
75938;BME280;64615;32.062;34.834;2023-08-31T08:27:46;100797.97;;;29.08;63.25
75938;BME280;64615;32.062;34.834;2023-08-31T08:30:11;100790.56;;;29.08;63.53
75938;BME280;64615;32.062;34.834;2023-08-31T08:32:37;100792.50;;;29.08;63.26
75938;BME280;64615;32.062;34.834;2023-08-31T08:35:03;100793.91;;;29.05;63.01
75938;BME280;64615;32.062;34.834;2023-08-31T08:37:29;100788.75;;;29.03;63.45
75938;BME280;64615;32.062;34.834;2023-08-31T08:39:55;100784.88;;;29.04;63.40
75938;BME280;64615;32.062;34.834;2023-08-31T08:42:24;100783.66;;;29.11;63.58
75938;BME280;64615;32.062;34.834;2023-08-31T08:44:50;100774.63;;;29.10;63.74
75938;BME280;64615;32.062;34.834;2023-08-31T08:47:16;100780.63;;;29.12;63.30
75938;BME280;64615;32.062;34.834;2023-08-31T08:49:42;100783.09;;;29.14;63.57
75938;BME280;64615;32.062;34.834;2023-08-31T08:52:09;100783.66;;;29.11;64.13
75938;BME280;64615;32.062;34.834;2023-08-31T08:54:38;100775.75;;;29.09;63.85
75938;BME280;64615;32.062;34.834;2023-08-31T08:57:04;100777.38;;;29.10;63.71
75938;BME280;64615;32.062;34.834;2023-08-31T08:59:30;100780.91;;;29.11;63.39
75938;BME280;64615;32.062;34.834;2023-08-31T09:01:56;100781.25;;;29.09;63.71
75938;BME280;64615;32.062;34.834;2023-08-31T09:04:22;100773.75;;;29.15;63.43
75938;BME280;64615;32.062;34.834;2023-08-31T09:06:50;100774.47;;;29.20;63.58
75938;BME280;64615;32.062;34.834;2023-08-31T09:09:15;100772.03;;;29.19;63.80
75938;BME280;64615;32.062;34.834;2023-08-31T09:11:42;100776.97;;;29.17;63.67
75938;BME280;64615;32.062;34.834;2023-08-31T09:14:19;100772.53;;;28.70;66.80
75938;BME280;64615;32.062;34.834;2023-08-31T09:16:54;100771.97;;;27.69;65.19
75938;BME280;64615;32.062;34.834;2023-08-31T09:19:21;100770.81;;;27.75;67.61
75938;BME280;64615;32.062;34.834;2023-08-31T09:21:51;100770.16;;;27.59;65.34
75938;BME280;64615;32.062;34.834;2023-08-31T09:24:17;100760.84;;;27.36;65.10
75938;BME280;64615;32.062;34.834;2023-08-31T09:26:53;100765.00;;;27.58;67.15
75938;BME280;64615;32.062;34.834;2023-08-31T09:29:19;100762.91;;;27.21;64.06
75938;BME280;64615;32.062;34.834;2023-08-31T09:31:45;100761.72;;;27.32;66.65
75938;BME280;64615;32.062;34.834;2023-08-31T09:34:15;100761.03;;;27.16;64.39
75938;BME280;64615;32.062;34.834;2023-08-31T09:36:41;100759.28;;;26.63;66.42
75938;BME280;64615;32.062;34.834;2023-08-31T09:39:08;100762.69;;;27.12;67.75
75938;BME280;64615;32.062;34.834;2023-08-31T09:41:35;100764.44;;;26.64;64.46
75938;BME280;64615;32.062;34.834;2023-08-31T09:44:15;100765.13;;;26.85;67.76
75938;BME280;64615;32.062;34.834;2023-08-31T09:46:42;100779.03;;;26.88;64.45
75938;BME280;64615;32.062;34.834;2023-08-31T09:49:08;100770.72;;;26.65;65.31
75938;BME280;64615;32.062;34.834;2023-08-31T09:51:35;100772.75;;;26.88;67.15
75938;BME280;64615;32.062;34.834;2023-08-31T09:54:05;100771.44;;;26.41;63.91
75938;BME280;64615;32.062;34.834;2023-08-31T09:56:33;100765.25;;;26.65;67.08
75938;BME280;64615;32.062;34.834;2023-08-31T09:58:58;100765.97;;;26.75;66.15
75938;BME280;64615;32.062;34.834;2023-08-31T10:01:24;100770.97;;;26.24;63.97
75938;BME280;64615;32.062;34.834;2023-08-31T10:03:51;100774.06;;;26.56;67.28
75938;BME280;64615;32.062;34.834;2023-08-31T10:06:17;100766.69;;;26.57;66.00
75938;BME280;64615;32.062;34.834;2023-08-31T10:08:44;100771.25;;;26.17;64.45
75938;BME280;64615;32.062;34.834;2023-08-31T10:11:10;100762.03;;;26.58;67.22
75938;BME280;64615;32.062;34.834;2023-08-31T10:13:40;100758.97;;;26.64;66.32
75938;BME280;64615;32.062;34.834;2023-08-31T10:16:06;100764.22;;;26.11;64.15
75938;BME280;64615;32.062;34.834;2023-08-31T10:18:34;100771.94;;;26.43;67.75
75938;BME280;64615;32.062;34.834;2023-08-31T10:21:02;100756.53;;;26.63;68.67
75938;BME280;64615;32.062;34.834;2023-08-31T10:23:29;100764.47;;;26.10;64.98
75938;BME280;64615;32.062;34.834;2023-08-31T10:28:25;100758.81;;;26.50;68.98
75938;BME280;64615;32.062;34.834;2023-08-31T10:33:43;100761.78;;;26.05;67.32
75938;BME280;64615;32.062;34.834;2023-08-31T10:36:14;100757.19;;;26.44;68.20
75938;BME280;64615;32.062;34.834;2023-08-31T10:38:41;100749.06;;;26.34;66.62
75938;BME280;64615;32.062;34.834;2023-08-31T10:43:54;100746.75;;;26.56;66.10
75938;BME280;64615;32.062;34.834;2023-08-31T10:51:27;100736.19;;;27.65;63.05
75938;BME280;64615;32.062;34.834;2023-08-31T10:54:03;100738.44;;;27.82;62.55
75938;BME280;64615;32.062;34.834;2023-08-31T10:56:32;100742.09;;;27.96;62.87
75938;BME280;64615;32.062;34.834;2023-08-31T10:59:00;100745.34;;;27.98;63.65
75938;BME280;64615;32.062;34.834;2023-08-31T11:01:54;100746.59;;;28.06;64.00
75938;BME280;64615;32.062;34.834;2023-08-31T11:04:27;100749.28;;;28.11;64.26
75938;BME280;64615;32.062;34.834;2023-08-31T11:07:26;100750.56;;;28.18;64.23
75938;BME280;64615;32.062;34.834;2023-08-31T11:09:52;100739.03;;;28.21;64.47
75938;BME280;64615;32.062;34.834;2023-08-31T11:12:22;100746.94;;;28.23;65.04
75938;BME280;64615;32.062;34.834;2023-08-31T11:14:49;100737.94;;;28.22;64.92
75938;BME280;64615;32.062;34.834;2023-08-31T11:17:14;100733.88;;;28.20;64.30
75938;BME280;64615;32.062;34.834;2023-08-31T11:19:41;100735.19;;;28.22;64.63
75938;BME280;64615;32.062;34.834;2023-08-31T11:22:06;100738.44;;;28.25;64.25
75938;BME280;64615;32.062;34.834;2023-08-31T11:24:35;100741.19;;;28.25;64.41
75938;BME280;64615;32.062;34.834;2023-08-31T11:27:00;100728.31;;;28.25;64.36
75938;BME280;64615;32.062;34.834;2023-08-31T11:29:29;100737.34;;;28.26;64.12
75938;BME280;64615;32.062;34.834;2023-08-31T11:31:58;100723.66;;;28.26;64.38
75938;BME280;64615;32.062;34.834;2023-08-31T11:34:26;100722.25;;;28.28;64.09
75938;BME280;64615;32.062;34.834;2023-08-31T11:36:52;100720.03;;;28.30;64.55
75938;BME280;64615;32.062;34.834;2023-08-31T11:39:19;100717.91;;;28.03;67.10
75938;BME280;64615;32.062;34.834;2023-08-31T11:41:44;100724.25;;;27.04;66.31
75938;BME280;64615;32.062;34.834;2023-08-31T11:44:14;100713.00;;;26.76;68.06
75938;BME280;64615;32.062;34.834;2023-08-31T11:46:45;100706.91;;;26.89;67.10
75938;BME280;64615;32.062;34.834;2023-08-31T11:49:16;100707.00;;;26.40;65.23
75938;BME280;64615;32.062;34.834;2023-08-31T11:51:43;100706.75;;;26.71;68.47
75938;BME280;64615;32.062;34.834;2023-08-31T11:54:10;100704.56;;;26.39;65.67
75938;BME280;64615;32.062;34.834;2023-08-31T11:56:40;100701.09;;;26.28;67.58
75938;BME280;64615;32.062;34.834;2023-08-31T11:59:09;100704.66;;;26.63;68.26
75938;BME280;64615;32.062;34.834;2023-08-31T12:01:40;100717.53;;;26.13;65.02
75938;BME280;64615;32.062;34.834;2023-08-31T12:04:14;100709.50;;;26.37;67.93
75938;BME280;64615;32.062;34.834;2023-08-31T12:06:40;100712.66;;;26.49;66.41
75938;BME280;64615;32.062;34.834;2023-08-31T12:09:09;100707.75;;;26.02;64.44
75938;BME280;64615;32.062;34.834;2023-08-31T12:11:35;100706.81;;;26.32;67.85
75938;BME280;64615;32.062;34.834;2023-08-31T12:14:03;100705.63;;;26.43;67.18
75938;BME280;64615;32.062;34.834;2023-08-31T12:16:33;100703.47;;;25.86;64.58
75938;BME280;64615;32.062;34.834;2023-08-31T12:19:02;100706.56;;;26.18;68.31
75938;BME280;64615;32.062;34.834;2023-08-31T12:21:32;100711.63;;;26.45;68.91
75938;BME280;64615;32.062;34.834;2023-08-31T12:23:59;100700.41;;;26.02;65.62
75938;BME280;64615;32.062;34.834;2023-08-31T12:26:26;100702.53;;;26.10;67.86
75938;BME280;64615;32.062;34.834;2023-08-31T12:28:51;100703.47;;;26.40;68.61
75938;BME280;64615;32.062;34.834;2023-08-31T12:31:17;100706.03;;;26.21;67.17
75938;BME280;64615;32.062;34.834;2023-08-31T12:33:43;100713.06;;;25.83;65.47
75938;BME280;64615;32.062;34.834;2023-08-31T12:36:08;100717.75;;;26.22;68.86
75938;BME280;64615;32.062;34.834;2023-08-31T12:38:34;100709.16;;;26.43;69.28
75938;BME280;64615;32.062;34.834;2023-08-31T12:41:00;100693.97;;;26.32;67.72
75938;BME280;64615;32.062;34.834;2023-08-31T12:43:28;100698.38;;;26.96;65.66
75938;BME280;64615;32.062;34.834;2023-08-31T12:45:57;100690.09;;;27.30;64.45
75938;BME280;64615;32.062;34.834;2023-08-31T12:48:23;100693.16;;;27.52;64.85
75938;BME280;64615;32.062;34.834;2023-08-31T12:50:49;100694.13;;;27.61;64.26
75938;BME280;64615;32.062;34.834;2023-08-31T12:53:15;100693.78;;;27.68;63.80
75938;BME280;64615;32.062;34.834;2023-08-31T12:55:41;100697.84;;;27.70;63.73
75938;BME280;64615;32.062;34.834;2023-08-31T12:58:07;100686.31;;;27.73;63.87